createdAt,value
2023-05-05T00:01:28.097Z,96741.97
2023-05-05T00:03:55.843Z,96742.97
2023-05-05T00:06:23.490Z,96738.13
2023-05-05T00:08:51.159Z,96730.66
2023-05-05T00:11:18.678Z,96740.56
2023-05-05T00:13:48.124Z,96734.72
2023-05-05T00:16:15.774Z,96738.34
2023-05-05T00:18:43.278Z,96733.31
2023-05-05T00:21:10.827Z,96736.34
2023-05-05T00:23:38.381Z,96735.31
2023-05-05T00:26:06.414Z,96741.59
2023-05-05T00:28:33.986Z,96744.22
2023-05-05T00:31:02.915Z,96734.50
2023-05-05T00:33:30.562Z,96736.34
2023-05-05T00:35:58.092Z,96728.66
2023-05-05T00:38:25.761Z,96729.88
2023-05-05T00:40:53.304Z,96727.69
2023-05-05T00:43:20.865Z,96727.06
2023-05-05T00:45:48.903Z,96729.09
2023-05-05T00:48:18.873Z,96728.09
2023-05-05T00:50:46.438Z,96725.28
2023-05-05T00:53:14.118Z,96726.50
2023-05-05T00:55:41.912Z,96727.72
2023-05-05T00:58:10.287Z,96727.91
2023-05-05T01:00:37.898Z,96724.50
2023-05-05T01:03:06.114Z,96721.66
2023-05-05T01:05:43.482Z,96722.25
2023-05-05T01:08:28.037Z,96723.69
2023-05-05T01:11:00.507Z,96719.81
2023-05-05T01:13:38.253Z,96720.66
2023-05-05T01:16:13.067Z,96723.88
2023-05-05T01:18:47.405Z,96725.06
2023-05-05T01:21:21.209Z,96725.28
2023-05-05T01:24:21.001Z,96725.06
2023-05-05T01:26:59.119Z,96726.28
2023-05-05T01:29:51.656Z,96735.38
2023-05-05T01:32:25.054Z,96731.72
2023-05-05T01:34:57.191Z,96735.38
2023-05-05T01:37:29.020Z,96734.34
2023-05-05T01:39:59.768Z,96734.34
2023-05-05T01:42:28.579Z,96735.78
2023-05-05T01:44:58.237Z,96743.44
2023-05-05T01:47:28.838Z,96739.00
2023-05-05T01:49:56.431Z,96729.72
2023-05-05T01:52:25.359Z,96738.00
2023-05-05T01:54:53.963Z,96736.97
2023-05-05T01:57:22.443Z,96730.91
2023-05-05T01:59:52.821Z,96741.59
2023-05-05T02:02:22.325Z,96732.13
2023-05-05T02:04:54.227Z,96739.13
2023-05-05T02:07:24.016Z,96738.13
2023-05-05T02:09:52.909Z,96738.91
2023-05-05T02:12:21.954Z,96735.88
2023-05-05T02:14:50.709Z,96733.25
2023-05-05T02:17:19.561Z,96741.13
2023-05-05T02:19:52.261Z,96735.69
2023-05-05T02:22:20.999Z,96732.69
2023-05-05T02:24:48.490Z,96732.63
2023-05-05T02:27:18.754Z,96735.25
2023-05-05T02:29:49.776Z,96732.81
2023-05-05T02:32:33.050Z,96736.66
2023-05-05T02:35:05.292Z,96737.44
2023-05-05T02:37:36.391Z,96734.56
2023-05-05T02:40:06.311Z,96740.03
2023-05-05T02:42:37.396Z,96741.19
2023-05-05T02:45:11.229Z,96732.09
2023-05-05T02:47:39.425Z,96730.66
2023-05-05T02:50:08.900Z,96728.84
2023-05-05T02:52:38.452Z,96728.41
2023-05-05T02:55:07.823Z,96723.34
2023-05-05T02:57:39.838Z,96727.00
2023-05-05T03:00:11.689Z,96721.31
2023-05-05T03:02:45.647Z,96729.94
2023-05-05T03:05:20.478Z,96716.81
2023-05-05T03:07:56.943Z,96717.81
2023-05-05T03:10:29.866Z,96721.63
2023-05-05T03:13:00.773Z,96714.53
2023-05-05T03:15:32.634Z,96715.13
2023-05-05T03:18:01.297Z,96717.13
2023-05-05T03:20:30.522Z,96712.06
2023-05-05T03:23:01.777Z,96718.69
2023-05-05T03:25:43.146Z,96718.28
2023-05-05T03:28:10.686Z,96718.28
2023-05-05T03:30:38.461Z,96720.69
2023-05-05T03:33:06.075Z,96719.28
2023-05-05T03:35:33.633Z,96723.16
2023-05-05T03:38:02.613Z,96723.00
2023-05-05T03:40:43.131Z,96740.13
2023-05-05T03:43:11.604Z,96741.38
2023-05-05T03:45:39.136Z,96739.16
2023-05-05T03:48:09.534Z,96744.59
2023-05-05T03:50:37.553Z,96751.41
2023-05-05T03:53:06.494Z,96752.41
2023-05-05T03:55:34.003Z,96753.03
2023-05-05T03:58:01.560Z,96751.81
2023-05-05T04:00:29.172Z,96761.41
2023-05-05T04:02:57.092Z,96760.41
2023-05-05T04:05:25.324Z,96766.72
2023-05-05T04:07:52.880Z,96766.72
2023-05-05T05:20:44.536Z,96792.91
2023-05-05T05:23:12.066Z,96793.59
2023-05-05T05:25:39.579Z,96789.03
2023-05-05T05:28:10.529Z,96789.28
2023-05-05T05:30:38.601Z,96788.38
2023-05-05T05:33:06.193Z,96790.06
2023-05-05T05:35:33.759Z,96785.91
2023-05-05T05:38:02.614Z,96797.09
2023-05-05T05:40:30.164Z,96786.66
2023-05-05T05:42:57.715Z,96795.38
2023-05-05T05:45:25.259Z,96790.19
2023-05-05T05:47:52.879Z,96788.41
2023-05-05T05:50:21.097Z,96787.84
2023-05-05T05:52:48.624Z,96798.94
2023-05-05T05:55:17.764Z,96797.56
2023-05-05T05:57:45.342Z,96797.94
2023-05-05T06:00:14.285Z,96804.03
2023-05-05T06:02:41.895Z,96810.53
2023-05-05T06:05:10.443Z,96809.13
2023-05-05T06:07:38.018Z,96807.47
2023-05-05T06:10:25.097Z,96811.72
2023-05-05T06:12:55.326Z,96809.69
2023-05-05T06:15:22.893Z,96814.91
2023-05-05T06:17:50.434Z,96808.59
2023-05-05T06:20:18.590Z,96810.22
2023-05-05T06:22:46.142Z,96806.94
2023-05-05T06:25:13.656Z,96812.94
2023-05-05T06:27:41.192Z,96811.13
2023-05-05T06:30:11.447Z,96810.63
2023-05-05T06:32:39.033Z,96807.50
2023-05-05T06:35:07.976Z,96812.84
2023-05-05T06:37:35.886Z,96813.56
2023-05-05T06:40:03.439Z,96809.81
2023-05-05T06:42:32.209Z,96815.78
2023-05-05T06:44:59.753Z,96814.09
2023-05-05T06:47:28.733Z,96814.00
2023-05-05T06:49:56.666Z,96815.50
2023-05-05T06:52:24.256Z,96826.69
2023-05-05T06:54:51.803Z,96827.81
2023-05-05T06:57:19.350Z,96819.16
2023-05-05T06:59:47.000Z,96822.22
2023-05-05T07:02:14.572Z,96826.56
2023-05-05T07:04:43.669Z,96822.41
2023-05-05T07:07:11.200Z,96821.84
2023-05-05T07:09:38.955Z,96832.47
2023-05-05T07:12:06.940Z,96831.72
2023-05-05T07:14:34.442Z,96834.38
2023-05-05T07:17:01.990Z,96836.25
2023-05-05T07:19:29.614Z,96835.25
2023-05-05T07:21:58.485Z,96834.47
2023-05-05T07:24:26.076Z,96830.69
2023-05-05T07:26:53.680Z,96838.34
2023-05-05T07:29:21.258Z,96830.28
2023-05-05T07:31:48.820Z,96839.50
2023-05-05T07:34:16.497Z,96832.81
2023-05-05T07:36:44.100Z,96830.63
2023-05-05T07:39:15.148Z,96829.59
2023-05-05T07:41:42.781Z,96824.06
2023-05-05T07:44:10.316Z,96834.38
2023-05-05T07:46:37.894Z,96832.53
2023-05-05T07:49:05.518Z,96832.28
2023-05-05T07:51:34.636Z,96834.09
2023-05-05T07:54:02.682Z,96832.69
2023-05-05T07:56:31.608Z,96832.09
2023-05-05T07:58:59.194Z,96836.75
2023-05-05T08:01:26.905Z,96843.97
2023-05-05T08:03:54.561Z,96839.09
2023-05-05T08:06:23.360Z,96840.31
2023-05-05T08:08:50.898Z,96848.69
2023-05-05T08:11:18.606Z,96840.72
2023-05-05T08:13:47.679Z,96839.84
2023-05-05T08:16:15.627Z,96840.56
2023-05-05T08:18:43.436Z,96840.72
2023-05-05T08:21:12.187Z,96835.56
2023-05-05T08:23:40.253Z,96835.63
2023-05-05T08:26:09.130Z,96835.00
2023-05-05T08:28:37.349Z,96838.59
2023-05-05T08:31:06.604Z,96831.09
2023-05-05T08:33:34.384Z,96833.91
2023-05-05T08:36:02.071Z,96837.50
2023-05-05T08:38:29.581Z,96834.38
2023-05-05T08:40:57.162Z,96832.03
2023-05-05T08:43:24.761Z,96833.09
2023-05-05T08:45:52.544Z,96835.94
2023-05-05T08:48:21.595Z,96833.41
2023-05-05T08:50:52.799Z,96833.34
2023-05-05T08:53:34.120Z,96841.31
2023-05-05T08:56:03.609Z,96833.56
2023-05-05T08:58:32.217Z,96849.50
2023-05-05T09:01:01.544Z,96842.09
2023-05-05T09:03:30.813Z,96843.72
2023-05-05T09:05:59.119Z,96847.66
2023-05-05T09:08:27.260Z,96854.75
2023-05-05T09:10:56.559Z,96847.34
2023-05-05T09:13:24.373Z,96861.59
2023-05-05T09:15:51.940Z,96855.41
2023-05-05T09:18:19.538Z,96851.31
2023-05-05T09:20:48.652Z,96856.06
2023-05-05T09:23:18.558Z,96857.91
2023-05-05T09:25:48.548Z,96859.22
2023-05-05T09:28:18.779Z,96853.56
2023-05-05T09:30:47.948Z,96846.91
2023-05-05T09:33:15.796Z,96848.75
2023-05-05T09:35:52.528Z,96854.38
2023-05-05T09:38:20.844Z,96849.88
2023-05-05T09:40:49.760Z,96855.19
2023-05-05T09:43:18.212Z,96844.03
2023-05-05T09:45:46.181Z,96848.25
2023-05-05T09:48:27.378Z,96853.00
2023-05-05T09:50:57.426Z,96857.28
2023-05-05T09:53:25.484Z,96851.41
2023-05-05T09:55:57.049Z,96847.63
2023-05-05T09:58:25.842Z,96849.72
2023-05-05T10:00:54.077Z,96852.31
2023-05-05T10:03:21.878Z,96850.28
2023-05-05T10:05:51.891Z,96855.97
2023-05-05T10:08:22.922Z,96861.44
2023-05-05T10:10:56.180Z,96860.78
2023-05-05T10:13:25.616Z,96864.13
2023-05-05T10:15:54.722Z,96864.28
2023-05-05T10:18:23.672Z,96861.78
2023-05-05T10:20:57.870Z,96865.72
2023-05-05T10:23:32.206Z,96854.19
2023-05-05T10:26:03.651Z,96857.56
2023-05-05T10:28:34.463Z,96853.22
2023-05-05T10:31:12.824Z,96847.84
2023-05-05T10:33:53.531Z,96845.91
2023-05-05T10:36:21.451Z,96839.91
2023-05-05T10:38:51.787Z,96837.97
2023-05-05T10:41:20.253Z,96840.31
2023-05-05T10:43:48.233Z,96835.72
2023-05-05T10:46:15.974Z,96829.75
2023-05-05T10:48:50.704Z,96831.72
2023-05-05T10:51:39.256Z,96823.13
2023-05-05T10:54:14.940Z,96824.25
2023-05-05T10:56:43.818Z,96819.66
2023-05-05T10:59:43.236Z,96816.66
2023-05-05T11:02:21.681Z,96818.19
2023-05-05T11:05:17.452Z,96826.34
2023-05-05T11:07:46.012Z,96821.50
2023-05-05T11:10:16.295Z,96818.53
2023-05-05T11:13:18.535Z,96825.69
2023-05-05T11:15:46.169Z,96818.78
2023-05-05T11:18:39.105Z,96813.47
2023-05-05T11:21:17.645Z,96810.13
2023-05-05T11:23:47.236Z,96812.06
2023-05-05T11:26:17.138Z,96804.25
2023-05-05T11:28:59.451Z,96790.91
2023-05-05T11:31:27.354Z,96786.06
2023-05-05T11:33:54.988Z,96787.88
2023-05-05T11:36:40.584Z,96793.91
2023-05-05T11:39:10.471Z,96784.88
2023-05-05T11:42:10.433Z,96780.41
2023-05-05T11:44:38.604Z,96777.22
2023-05-05T11:47:29.683Z,96772.28
2023-05-05T11:49:57.601Z,96776.22
2023-05-05T11:52:29.622Z,96774.84
2023-05-05T11:55:02.393Z,96772.41
2023-05-05T11:57:31.788Z,96769.66
2023-05-05T12:00:01.635Z,96768.16
2023-05-05T12:02:30.523Z,96761.66
2023-05-05T12:04:59.157Z,96764.44
2023-05-05T12:07:28.420Z,96764.81
2023-05-05T12:09:56.091Z,96761.50
2023-05-05T12:12:36.857Z,96761.06
2023-05-05T12:15:05.703Z,96756.09
2023-05-05T12:17:42.585Z,96749.06
2023-05-05T12:20:12.165Z,96749.69
2023-05-05T12:22:40.644Z,96744.47
2023-05-05T12:25:09.038Z,96741.38
2023-05-05T12:27:38.529Z,96747.22
2023-05-05T12:30:16.069Z,96741.97
2023-05-05T12:32:44.106Z,96738.56
2023-05-05T12:35:13.488Z,96735.69
2023-05-05T12:37:41.664Z,96736.53
2023-05-05T12:40:45.597Z,96729.41
2023-05-05T12:43:26.566Z,96721.47
2023-05-05T12:46:02.072Z,96728.16
2023-05-05T12:48:29.931Z,96729.81
2023-05-05T12:51:14.360Z,96720.81
2023-05-05T12:53:41.981Z,96717.88
2023-05-05T12:56:31.035Z,96717.38
2023-05-05T12:59:00.216Z,96714.75
2023-05-05T13:01:28.292Z,96708.91
2023-05-05T13:04:09.628Z,96703.88
2023-05-05T13:06:37.660Z,96697.53
2023-05-05T13:09:05.879Z,96693.06
2023-05-05T13:11:36.348Z,96699.44
2023-05-05T13:14:05.897Z,96700.53
2023-05-05T13:16:33.801Z,96690.16
2023-05-05T13:19:01.338Z,96679.50
2023-05-05T13:21:29.045Z,96682.94
2023-05-05T13:24:05.078Z,96677.63
2023-05-05T13:26:44.108Z,96671.25
2023-05-05T13:29:12.941Z,96674.47
2023-05-05T13:31:40.745Z,96665.94
2023-05-05T13:34:08.487Z,96664.91
2023-05-05T13:36:36.018Z,96663.81
2023-05-05T13:39:03.599Z,96662.25
2023-05-05T13:41:31.157Z,96656.13
2023-05-05T13:43:58.667Z,96649.19
2023-05-05T13:46:27.608Z,96643.06
2023-05-05T13:48:56.916Z,96645.47
2023-05-05T13:51:24.623Z,96640.41
2023-05-05T13:53:52.431Z,96639.09
2023-05-05T13:56:20.059Z,96639.38
2023-05-05T13:58:47.588Z,96631.16
2023-05-05T14:01:15.112Z,96629.53
2023-05-05T14:03:44.007Z,96625.53
2023-05-05T14:06:11.547Z,96620.22
2023-05-05T14:08:39.112Z,96620.22
2023-05-05T14:11:06.711Z,96613.31
2023-05-05T14:13:34.294Z,96607.16
2023-05-05T14:16:02.305Z,96609.56
2023-05-05T14:18:29.880Z,96599.72
2023-05-05T14:20:58.889Z,96601.84
2023-05-05T14:23:26.479Z,96597.06
2023-05-05T14:25:54.602Z,96598.09
2023-05-05T14:28:22.130Z,96590.94
2023-05-05T14:30:49.694Z,96594.66
2023-05-05T14:33:17.673Z,96595.19
2023-05-05T14:35:45.253Z,96596.75
2023-05-05T14:38:14.135Z,96595.97
2023-05-05T14:40:41.760Z,96585.34
2023-05-05T14:43:09.340Z,96584.53
2023-05-05T14:45:36.952Z,96582.38
2023-05-05T14:48:04.783Z,96584.78
2023-05-05T14:50:32.340Z,96578.06
2023-05-05T14:52:59.893Z,96583.63
2023-05-05T14:55:28.779Z,96579.34
2023-05-05T14:57:56.288Z,96582.00
2023-05-05T15:00:23.995Z,96573.72
2023-05-05T15:02:51.592Z,96579.06
2023-05-05T15:05:19.176Z,96577.72
2023-05-05T15:07:46.724Z,96582.78
2023-05-05T15:10:14.269Z,96580.59
2023-05-05T15:12:43.596Z,96581.63
2023-05-05T15:15:11.886Z,96578.41
2023-05-05T15:17:41.556Z,96577.81
2023-05-05T15:20:10.102Z,96582.56
2023-05-05T15:22:37.629Z,96584.41
2023-05-05T15:25:08.997Z,96586.19
2023-05-05T15:27:37.954Z,96585.34
2023-05-05T15:30:08.568Z,96578.91
2023-05-05T15:32:36.112Z,96582.59
2023-05-05T15:35:03.764Z,96587.88
2023-05-05T15:37:31.752Z,96588.66
2023-05-05T15:39:59.384Z,96590.19
2023-05-05T15:42:27.434Z,96594.41
2023-05-05T15:44:55.059Z,96592.75
2023-05-05T15:47:24.121Z,96592.72
2023-05-05T15:49:51.687Z,96581.28
2023-05-05T15:52:19.257Z,96576.72
2023-05-05T15:54:46.842Z,96582.50
2023-05-05T15:57:14.480Z,96575.78
2023-05-05T15:59:42.270Z,96566.41
2023-05-05T16:02:09.827Z,96568.44
2023-05-05T16:04:38.754Z,96564.97
2023-05-05T16:07:06.289Z,96567.06
2023-05-05T16:09:33.992Z,96566.19
2023-05-05T16:12:02.594Z,96563.50
2023-05-05T16:14:33.155Z,96572.22
2023-05-05T16:17:03.744Z,96569.56
2023-05-05T16:19:31.364Z,96557.59
2023-05-05T16:22:00.608Z,96559.69
2023-05-05T16:24:28.169Z,96551.75
2023-05-05T16:26:55.757Z,96543.72
2023-05-05T16:29:23.451Z,96537.31
2023-05-05T16:31:50.978Z,96538.88
2023-05-05T16:34:18.536Z,96537.50
2023-05-05T16:36:46.500Z,96532.72
2023-05-05T16:39:15.453Z,96545.66
2023-05-05T16:41:42.976Z,96541.09
2023-05-05T16:44:10.494Z,96532.28
2023-05-05T16:46:39.938Z,96532.22
2023-05-05T16:49:07.559Z,96532.97
2023-05-05T16:51:35.102Z,96536.31
2023-05-05T16:54:02.639Z,96543.16
2023-05-05T16:56:31.602Z,96546.78
2023-05-05T16:58:59.164Z,96544.88
2023-05-05T17:01:26.709Z,96554.34
2023-05-05T17:03:55.306Z,96558.31
2023-05-05T17:06:22.859Z,96571.25
2023-05-05T17:08:50.410Z,96590.03
2023-05-05T17:11:17.998Z,96600.63
2023-05-05T17:13:46.940Z,96612.00
2023-05-05T17:16:14.560Z,96596.91
2023-05-05T17:18:42.102Z,96603.50
2023-05-05T17:21:09.699Z,96595.97
2023-05-05T17:23:37.440Z,96599.84
2023-05-05T17:26:05.185Z,96600.75
2023-05-05T17:28:32.729Z,96600.56
2023-05-05T17:31:02.041Z,96602.59
2023-05-05T17:33:29.600Z,96617.34
2023-05-05T17:35:57.117Z,96627.34
2023-05-05T17:38:24.648Z,96633.50
2023-05-05T17:40:52.170Z,96639.41
2023-05-05T17:43:19.704Z,96656.69
2023-05-05T17:45:47.403Z,96672.63
2023-05-05T17:48:16.355Z,96685.63
2023-05-05T17:50:43.964Z,96690.97
2023-05-05T17:53:11.805Z,96697.31
2023-05-05T17:55:39.321Z,96718.81
2023-05-05T17:58:06.821Z,96738.81
2023-05-05T18:00:34.381Z,96727.56
2023-05-05T18:03:02.036Z,96725.81
2023-05-05T18:05:31.324Z,96733.03
2023-05-05T18:07:59.210Z,96723.16
2023-05-05T18:10:26.833Z,96719.38
2023-05-05T18:12:54.408Z,96707.66
2023-05-05T18:15:22.589Z,96680.56
2023-05-05T18:17:50.098Z,96668.47
2023-05-05T18:20:18.269Z,96675.84
2023-05-05T18:22:47.303Z,96678.22
2023-05-05T18:25:14.873Z,96672.72
2023-05-05T18:27:43.821Z,96665.34
2023-05-05T18:30:12.061Z,96655.69
2023-05-05T18:32:39.603Z,96653.34
2023-05-05T18:35:08.218Z,96662.03
2023-05-05T18:37:36.173Z,96656.72
2023-05-05T18:40:05.890Z,96665.09
2023-05-05T18:42:33.429Z,96666.91
2023-05-05T18:45:01.533Z,96672.19
2023-05-05T18:47:29.249Z,96667.38
2023-05-05T18:49:56.854Z,96671.56
2023-05-05T18:52:24.382Z,96676.13
2023-05-05T18:54:51.904Z,96680.66
2023-05-05T18:57:20.792Z,96681.19
2023-05-05T18:59:48.349Z,96687.81
2023-05-05T19:02:16.943Z,96688.22
2023-05-05T19:04:44.894Z,96695.13
2023-05-05T19:07:18.370Z,96702.00
2023-05-05T19:09:51.579Z,96710.13
2023-05-05T19:12:19.103Z,96719.44
2023-05-05T19:14:47.975Z,96728.28
2023-05-05T19:17:15.527Z,96733.91
2023-05-05T19:19:43.214Z,96743.22
2023-05-05T19:22:10.741Z,96748.06
2023-05-05T19:24:38.323Z,96732.16
2023-05-05T19:27:07.047Z,96741.81
2023-05-05T19:29:35.093Z,96744.59
2023-05-05T19:32:04.050Z,96743.94
2023-05-05T19:34:31.981Z,96738.00
2023-05-05T19:37:00.184Z,96728.31
2023-05-05T19:39:27.968Z,96738.28
2023-05-05T19:41:56.148Z,96738.53
2023-05-05T19:44:24.419Z,96736.44
2023-05-05T19:46:53.802Z,96749.63
2023-05-05T19:49:22.992Z,96746.19
2023-05-05T19:51:52.204Z,96749.97
2023-05-05T19:54:19.930Z,96758.16
2023-05-05T19:56:47.637Z,96761.44
2023-05-05T19:59:15.324Z,96755.72
2023-05-05T20:01:43.042Z,96751.25
2023-05-05T20:04:10.593Z,96750.53
2023-05-05T20:06:39.420Z,96756.31
2023-05-05T20:09:08.003Z,96755.44
2023-05-05T20:11:35.931Z,96753.50
2023-05-05T20:14:03.689Z,96746.09
2023-05-05T20:16:31.459Z,96745.13
2023-05-05T20:18:59.705Z,96755.06
2023-05-05T20:21:27.944Z,96762.38
2023-05-05T20:23:57.024Z,96769.69
2023-05-05T20:26:25.837Z,96772.91
2023-05-05T20:28:53.849Z,96765.75
2023-05-05T20:31:21.924Z,96762.25
2023-05-05T20:33:49.893Z,96768.28
2023-05-05T20:36:18.568Z,96765.66
2023-05-05T20:38:46.219Z,96764.25
2023-05-05T20:41:15.523Z,96771.94
2023-05-05T20:43:43.597Z,96765.88
2023-05-05T20:46:13.218Z,96766.69
2023-05-05T20:48:42.925Z,96771.38
2023-05-05T20:51:10.851Z,96775.41
2023-05-05T20:53:38.399Z,96778.50
2023-05-05T20:56:08.654Z,96776.88
2023-05-05T20:58:38.025Z,96787.41
2023-05-05T21:01:05.580Z,96778.69
2023-05-05T21:03:33.173Z,96773.66
2023-05-05T21:06:00.732Z,96770.41
2023-05-05T21:08:28.296Z,96769.19
2023-05-05T21:10:55.815Z,96774.22
2023-05-05T21:13:23.431Z,96778.13
2023-05-05T21:15:52.328Z,96780.94
2023-05-05T21:18:19.847Z,96782.19
2023-05-05T21:20:47.393Z,96768.44
2023-05-05T21:23:14.918Z,96769.88
2023-05-05T21:25:42.483Z,96773.34
2023-05-05T21:28:10.065Z,96771.72
2023-05-05T21:30:37.951Z,96765.44
2023-05-05T21:33:06.889Z,96768.06
2023-05-05T21:35:34.479Z,96766.03
2023-05-05T21:38:02.009Z,96753.94
2023-05-05T21:40:29.724Z,96753.53
2023-05-05T21:42:57.279Z,96755.97
2023-05-05T21:45:25.039Z,96756.81
2023-05-05T21:47:52.767Z,96754.31
2023-05-05T21:50:21.956Z,96758.03
2023-05-05T21:52:50.544Z,96757.84
2023-05-05T21:55:18.094Z,96762.78
2023-05-05T21:57:45.654Z,96760.41
2023-05-05T22:00:16.644Z,96770.53
2023-05-05T22:02:44.448Z,96775.38
2023-05-05T22:05:12.249Z,96767.66
2023-05-05T22:07:41.310Z,96765.22
2023-05-05T22:10:10.395Z,96760.84
2023-05-05T22:12:38.228Z,96758.00
2023-05-05T22:15:06.993Z,96754.78
2023-05-05T22:17:34.714Z,96757.00
2023-05-05T22:20:02.213Z,96756.41
2023-05-05T22:22:29.709Z,96755.63
2023-05-05T22:24:58.678Z,96767.41
2023-05-05T22:27:26.761Z,96773.47
2023-05-05T22:29:54.314Z,96765.22
2023-05-05T22:32:22.029Z,96770.88
2023-05-05T22:34:49.739Z,96768.88
2023-05-05T22:37:17.605Z,96771.34
2023-05-05T22:39:45.119Z,96771.97
2023-05-05T22:42:14.011Z,96773.78
2023-05-05T22:44:41.500Z,96780.22
2023-05-05T22:47:09.132Z,96775.41
2023-05-05T22:49:36.947Z,96775.22
2023-05-05T22:52:04.638Z,96779.88
2023-05-05T22:54:32.169Z,96770.97
2023-05-05T22:56:59.785Z,96765.91
2023-05-05T22:59:28.686Z,96764.69
2023-05-05T23:01:56.301Z,96762.66
2023-05-05T23:04:23.860Z,96761.03
2023-05-05T23:06:51.953Z,96755.56
2023-05-05T23:09:19.887Z,96761.41
2023-05-05T23:11:47.391Z,96760.19
2023-05-05T23:14:16.792Z,96755.69
2023-05-05T23:16:45.750Z,96760.31
2023-05-05T23:19:13.437Z,96768.22
2023-05-05T23:21:52.056Z,96767.22
2023-05-05T23:24:20.646Z,96768.81
2023-05-05T23:26:48.174Z,96763.75
2023-05-05T23:29:15.689Z,96764.16
2023-05-05T23:31:43.193Z,96758.53
2023-05-05T23:34:12.160Z,96765.81
2023-05-05T23:36:39.704Z,96763.38
2023-05-05T23:39:07.295Z,96762.16
2023-05-05T23:41:34.811Z,96766.63
2023-05-05T23:44:02.336Z,96762.97
2023-05-05T23:46:30.410Z,96772.88
2023-05-05T23:48:57.985Z,96766.00
2023-05-05T23:51:27.962Z,96769.69
2023-05-05T23:53:57.163Z,96764.81
2023-05-05T23:56:24.954Z,96761.00
2023-05-05T23:58:53.800Z,96759.78
